Catàleg de serveis del Meteocat
Campanya meteocatpedra

Dades de l'estació automàtica la Quar

?
?
Resum diari 22:30 TU
Dades diàries de l'estació meteorològica
Temperatura mitjana 4.8 °C
Temperatura màxima 11.0 °C 13:03 TU
Temperatura mínima 0.6 °C 1:43 TU
Humitat relativa mitjana 89%
Precipitació acumulada 0.0 mm
Ratxa màxima del vent (10 m) 28.1 km/h - 50º 4:21 TU
Pressió atmosfèrica mitjana 1007.4 hPa

El tram horari està expressat en Temps Universal (TU). Cal sumar una hora en horari d'hivern i dues en horari d'estiu per passar a l'hora oficial.

la Quar

Metadades estació meteorol´gica
Municipi La Quar
Comarca Berguedà
Altitud 873 m
Data alta 13.03.1996
Estat actual Operativa
Dades de període
Període
TU
TM
°C
TX
°C
TN
°C
HRM
%
PPT
mm
VVM (10 m)
km/h
DVM (10 m)
graus
VVX (10 m)
km/h
PM
hPa
00:00 - 00:30 2.6 3.1 2.0 92 0.0 3.2 4 8.3 1007.2
00:30 - 01:00 1.6 2.3 1.2 94 0.0 2.5 28 7.6 1007.4
01:00 - 01:30 1.1 1.4 0.9 96 0.0 2.5 37 10.4 1006.9
01:30 - 02:00 0.8 1.0 0.6 97 0.0 1.8 23 6.5 1007.1
02:00 - 02:30 1.1 1.6 0.8 98 0.0 2.5 15 9.0 1006.8
02:30 - 03:00 1.7 2.0 1.2 99 0.0 4.7 31 13.3 1006.3
03:00 - 03:30 1.5 1.7 1.3 98 0.0 4.0 43 12.6 1006.3
03:30 - 04:00 1.6 1.8 1.3 98 0.0 8.3 58 14.0 1006.6
04:00 - 04:30 2.4 2.6 1.7 98 0.0 15.1 55 28.1 1006.1
04:30 - 05:00 2.5 2.7 2.4 95 0.0 16.6 55 26.6 1005.9
05:00 - 05:30 2.8 2.9 2.6 90 0.0 10.4 57 19.4 1006.0
05:30 - 06:00 2.4 2.6 1.9 91 0.0 9.4 50 17.3 1006.3
06:00 - 06:30 2.1 2.2 1.9 91 0.0 10.8 53 14.8 1006.6
06:30 - 07:00 2.1 2.6 1.9 92 0.0 10.8 52 16.2 1006.8
07:00 - 07:30 3.1 3.8 2.5 89 0.0 12.2 54 17.6 1006.8
07:30 - 08:00 4.1 4.5 3.9 85 0.0 9.0 47 15.8 1006.7
08:00 - 08:30 5.0 5.2 4.6 85 0.0 7.6 52 13.3 1006.8
08:30 - 09:00 5.1 5.2 5.1 83 0.0 8.3 53 14.0 1007.0
09:00 - 09:30 5.5 6.0 5.2 83 0.0 5.4 37 10.4 1007.2
09:30 - 10:00 6.5 6.9 6.1 81 0.0 2.9 314 10.4 1007.3
10:00 - 10:30 7.1 7.2 6.8 78 0.0 4.0 223 9.4 1007.3
10:30 - 11:00 7.3 7.4 7.2 76 0.0 3.6 241 7.2 1007.4
11:00 - 11:30 7.5 7.7 7.3 77 0.0 5.0 237 9.0 1007.3
11:30 - 12:00 8.1 9.1 7.5 76 0.0 6.5 234 15.1 1006.7
12:00 - 12:30 8.9 9.3 8.6 74 0.0 7.2 233 15.5 1006.1
12:30 - 13:00 9.9 10.8 9.0 71 0.0 7.6 225 17.6 1005.6
13:00 - 13:30 10.2 11.0 9.5 71 0.0 7.6 221 17.6 1005.4
13:30 - 14:00 10.3 10.8 9.8 70 0.0 6.8 210 15.5 1005.3
14:00 - 14:30 10.3 10.9 9.8 70 0.0 6.5 209 16.9 1005.3
14:30 - 15:00 10.1 10.6 9.0 71 0.0 5.8 217 14.0 1005.4
15:00 - 15:30 8.0 8.9 7.8 80 0.0 6.5 212 17.3 1006.6
15:30 - 16:00 8.2 8.9 7.4 81 0.0 4.7 204 14.0 1006.8
16:00 - 16:30 6.8 7.5 5.8 84 0.0 3.6 209 12.2 1007.2
16:30 - 17:00 5.0 5.7 4.5 91 0.0 2.9 236 6.8 1008.4
17:00 - 17:30 4.3 4.4 4.2 95 0.0 0.7 254 3.2 1009.3
17:30 - 18:00 3.9 4.2 3.5 96 0.0 2.2 31 6.1 1009.3
18:00 - 18:30 3.7 4.0 3.3 97 0.0 1.4 290 4.7 1009.8
18:30 - 19:00 3.7 4.0 3.2 97 0.0 2.5 95 6.1 1010.2
19:00 - 19:30 3.7 4.1 3.2 98 0.0 2.2 35 6.1 1010.1
19:30 - 20:00 4.3 4.6 4.1 98 0.0 4.7 58 9.4 1009.9
20:00 - 20:30 4.5 4.6 4.3 98 0.0 4.0 70 11.2 1009.7
20:30 - 21:00 4.0 4.2 3.7 98 0.0 1.4 14 5.4 1009.8
21:00 - 21:30 3.6 3.8 3.2 98 0.0 1.8 1 3.6 1009.5
21:30 - 22:00 3.1 3.4 2.8 98 0.0 1.4 292 5.0 1009.5
22:00 - 22:30 3.8 4.3 3.4 99 0.0 3.2 300 7.9 1009.1
22:30 - 23:00 4.3 4.4 4.1 98 0.0 1.8 27 7.6 1008.1

Les dades en taronja només han passat un control de qualitat automàtic. Resta pendent la seva validació definitiva.